createdAt,value
2023-06-19T00:01:02.894Z,25.76
2023-06-19T00:06:38.362Z,25.71
2023-06-19T00:12:10.071Z,25.55
2023-06-19T00:17:41.974Z,25.48
2023-06-19T00:23:13.562Z,25.48
2023-06-19T00:28:45.400Z,25.37
2023-06-19T00:34:17.123Z,24.96
2023-06-19T00:39:48.707Z,25.1
2023-06-19T00:45:20.560Z,25.06
2023-06-19T00:50:52.186Z,25.2
2023-06-19T00:56:23.883Z,25.28
2023-06-19T01:01:56.159Z,25.48
2023-06-19T01:07:31.767Z,24.92
2023-06-19T01:13:03.525Z,24.65
2023-06-19T01:18:35.277Z,24.6
2023-06-19T01:24:06.882Z,24.65
2023-06-19T01:29:38.590Z,24.59
2023-06-19T01:35:10.312Z,24.67
2023-06-19T01:40:42.201Z,24.52
2023-06-19T01:46:13.869Z,24.46
2023-06-19T01:51:45.461Z,24.34
2023-06-19T01:57:17.198Z,24.29
2023-06-19T02:02:48.958Z,24.22
2023-06-19T02:08:27.149Z,24.14
2023-06-19T02:13:58.919Z,24.24
2023-06-19T02:19:33.273Z,24.18
2023-06-19T02:25:05.680Z,24.24
2023-06-19T02:30:36.838Z,24.31
2023-06-19T02:36:08.430Z,24.37
2023-06-19T02:47:12.121Z,24.27
2023-06-19T02:58:15.497Z,24.34
2023-06-19T03:03:47.056Z,24.33
2023-06-19T03:09:23.170Z,24.19
2023-06-19T03:14:55.293Z,24.39
2023-06-19T03:20:26.974Z,24.47
2023-06-19T03:25:58.465Z,24.3
2023-06-19T03:31:30.061Z,24.5
2023-06-19T03:37:01.798Z,24.35
2023-06-19T03:42:33.716Z,24.49
2023-06-19T03:48:05.423Z,24.4
2023-06-19T03:53:36.963Z,24.14
2023-06-19T03:59:08.675Z,24.11
2023-06-19T04:04:40.643Z,24.04
2023-06-19T04:10:16.597Z,23.79
2023-06-19T04:15:50.961Z,23.58
2023-06-19T04:21:19.909Z,23.43
2023-06-19T04:26:51.830Z,23.19
2023-06-19T04:32:23.417Z,23.29
2023-06-19T04:37:55.139Z,23.3
2023-06-19T04:43:26.980Z,23.37
2023-06-19T04:48:58.660Z,23.16
2023-06-19T04:54:30.394Z,23.26
2023-06-19T05:00:02.141Z,23.25
2023-06-19T05:05:33.875Z,23.42
2023-06-19T05:11:09.769Z,23.33
2023-06-19T05:16:41.662Z,23.43
2023-06-19T05:22:13.244Z,23.6
2023-06-19T05:27:44.970Z,23.71
2023-06-19T05:33:16.704Z,23.83
2023-06-19T05:38:48.435Z,24.02
2023-06-19T05:44:20.229Z,23.89
2023-06-19T05:49:51.989Z,23.82
2023-06-19T05:55:23.718Z,24.25
2023-06-19T06:00:55.290Z,24.28
2023-06-19T06:06:27.210Z,24.39
2023-06-19T06:12:03.107Z,24.42
2023-06-19T06:17:34.838Z,24.26
2023-06-19T06:23:06.758Z,24.43
2023-06-19T06:28:38.416Z,24.66
2023-06-19T06:34:10.262Z,24.83
2023-06-19T06:39:42.137Z,25.11
2023-06-19T06:45:13.535Z,25.35
2023-06-19T06:50:45.111Z,25.64
2023-06-19T06:56:17.035Z,25.68
2023-06-19T07:01:48.589Z,25.92
2023-06-19T07:07:20.456Z,25.8
2023-06-19T07:12:56.716Z,25.65
2023-06-19T07:18:28.316Z,25.82
2023-06-19T07:24:00.230Z,26.04
2023-06-19T07:29:31.805Z,26.25
2023-06-19T07:35:03.570Z,26.36
2023-06-19T07:40:35.199Z,26.54
2023-06-19T07:46:06.976Z,26.85
2023-06-19T07:51:38.497Z,26.58
2023-06-19T07:57:10.563Z,26.84
2023-06-19T08:02:42.117Z,26.84
2023-06-19T08:08:13.606Z,26.51
2023-06-19T08:13:51.892Z,26.6
2023-06-19T08:19:23.599Z,26.9
2023-06-19T08:24:55.299Z,26.91
2023-06-19T08:30:27.052Z,27.27
2023-06-19T08:35:58.573Z,27.57
2023-06-19T08:41:30.347Z,27.47
2023-06-19T08:47:02.003Z,27.78
2023-06-19T08:52:33.754Z,27.78
2023-06-19T08:58:05.650Z,28.2
2023-06-19T09:03:37.405Z,27.84
2023-06-19T09:09:09.079Z,28.28
2023-06-19T09:14:45.195Z,28.37
2023-06-19T09:20:17.238Z,28.05
2023-06-19T09:25:48.477Z,28.35
2023-06-19T09:31:20.169Z,28.81
2023-06-19T09:36:52.075Z,28.75
2023-06-19T09:42:23.702Z,29.03
2023-06-19T09:47:55.407Z,29.1
2023-06-19T09:53:27.182Z,29.31
2023-06-19T09:58:58.800Z,29.28
2023-06-19T10:04:30.524Z,29.07
2023-06-19T10:10:02.281Z,29.39
2023-06-19T10:15:40.513Z,29.52
2023-06-19T10:21:12.141Z,29.05
2023-06-19T10:26:43.774Z,29.28
2023-06-19T10:32:15.509Z,28.95
2023-06-19T10:37:47.261Z,29.55
2023-06-19T10:43:19.145Z,29.37
2023-06-19T10:48:50.658Z,29.34
2023-06-19T10:54:22.348Z,29.34
2023-06-19T10:59:54.114Z,29.29
2023-06-19T11:05:25.928Z,29.43
2023-06-19T11:10:57.555Z,29.15
2023-06-19T11:16:33.778Z,29.72
2023-06-19T11:22:05.352Z,30.24
2023-06-19T11:27:37.077Z,30.58
2023-06-19T11:33:08.792Z,30.4
2023-06-19T11:38:40.527Z,30.76
2023-06-19T11:44:12.412Z,30.34
2023-06-19T11:49:44.177Z,30.04
2023-06-19T11:55:15.894Z,30.87
2023-06-19T12:00:47.626Z,30.79
2023-06-19T12:06:19.324Z,31.1
2023-06-19T12:11:50.835Z,30.51
2023-06-19T12:17:27.134Z,30.92
2023-06-19T12:22:58.713Z,30.81
2023-06-19T12:28:30.606Z,31.01
2023-06-19T12:34:08.108Z,30.95
2023-06-19T12:39:34.058Z,31.24
2023-06-19T12:45:05.750Z,31.59
2023-06-19T12:50:37.273Z,31.33
2023-06-19T12:56:11.883Z,31.61
2023-06-19T13:01:41.229Z,31.65
2023-06-19T13:07:12.465Z,32.15
2023-06-19T13:12:44.787Z,31.98
2023-06-19T13:18:20.429Z,31.69
2023-06-19T13:23:52.188Z,31.94
2023-06-19T13:29:23.703Z,32.03
2023-06-19T13:34:55.505Z,32.3
2023-06-19T13:40:27.193Z,31.55
2023-06-19T13:45:59.032Z,31.5
2023-06-19T13:51:30.760Z,31.5
2023-06-19T13:57:02.286Z,31.67
2023-06-19T14:02:34.624Z,31.67
2023-06-19T14:08:05.806Z,32.0
2023-06-19T14:13:37.514Z,31.38
2023-06-19T14:19:14.526Z,31.75
2023-06-19T14:24:45.419Z,31.75
2023-06-19T14:30:17.060Z,32.06
2023-06-19T14:35:50.259Z,31.53
2023-06-19T14:41:20.666Z,31.67
2023-06-19T14:46:52.217Z,31.45
2023-06-19T14:52:23.959Z,31.78
2023-06-19T14:57:55.772Z,31.86
2023-06-19T15:03:27.451Z,31.57
2023-06-19T15:09:02.202Z,31.6
2023-06-19T15:14:31.010Z,31.99
2023-06-19T15:20:08.940Z,32.11
2023-06-19T15:25:40.683Z,32.04
2023-06-19T15:31:12.416Z,31.95
2023-06-19T15:36:44.545Z,31.47
2023-06-19T15:42:16.046Z,31.22
2023-06-19T15:47:47.847Z,31.35
2023-06-19T15:53:19.334Z,30.94
2023-06-19T15:58:50.987Z,30.81
2023-06-19T16:04:22.995Z,30.14
2023-06-19T16:09:55.798Z,30.23
2023-06-19T16:15:26.198Z,30.39
2023-06-19T16:21:02.469Z,29.97
2023-06-19T16:26:34.195Z,29.49
2023-06-19T16:32:09.957Z,29.5
2023-06-19T16:37:37.435Z,29.66
2023-06-19T16:43:09.203Z,29.37
2023-06-19T16:48:41.116Z,29.09
2023-06-19T16:54:12.675Z,29.06
2023-06-19T16:59:44.423Z,29.0
2023-06-19T17:05:16.110Z,28.92
2023-06-19T17:10:48.048Z,28.93
2023-06-19T17:16:19.609Z,28.74
2023-06-19T17:21:57.623Z,29.36
2023-06-19T17:27:29.561Z,29.51
2023-06-19T17:33:01.368Z,29.52
2023-06-19T17:38:32.982Z,29.59
2023-06-19T17:44:04.514Z,29.1
2023-06-19T17:49:36.290Z,29.36
2023-06-19T17:55:08.164Z,29.48
2023-06-19T18:00:39.690Z,29.37
2023-06-19T18:06:11.624Z,29.18
2023-06-19T18:11:43.358Z,29.35
2023-06-19T18:17:15.010Z,29.36
2023-06-19T18:22:50.939Z,29.31
2023-06-19T18:28:22.659Z,29.51
2023-06-19T18:33:54.395Z,29.45
2023-06-19T18:39:26.361Z,29.33
2023-06-19T18:44:58.129Z,29.1
2023-06-19T18:50:29.736Z,28.92
2023-06-19T18:56:01.320Z,28.75
2023-06-19T19:01:33.304Z,28.59
2023-06-19T19:07:04.765Z,28.36
2023-06-19T19:12:36.639Z,28.15
2023-06-19T19:18:08.398Z,27.89
2023-06-19T19:23:44.435Z,27.73
2023-06-19T19:29:16.200Z,27.63
2023-06-19T19:34:47.724Z,27.38
2023-06-19T19:40:19.689Z,27.26
2023-06-19T19:45:51.443Z,26.98
2023-06-19T19:51:22.902Z,26.88
2023-06-19T19:56:54.808Z,26.84
2023-06-19T20:02:26.424Z,26.74
2023-06-19T20:07:58.025Z,26.5
2023-06-19T20:13:29.736Z,26.51
2023-06-19T20:19:01.489Z,26.37
2023-06-19T20:24:38.119Z,26.26
2023-06-19T20:30:09.469Z,26.09
2023-06-19T20:35:41.279Z,25.96
2023-06-19T20:41:12.945Z,26.05
2023-06-19T20:46:44.789Z,26.06
2023-06-19T20:52:16.378Z,26.02
2023-06-19T20:57:48.130Z,25.94
2023-06-19T21:03:19.978Z,25.9
2023-06-19T21:08:51.526Z,25.86
2023-06-19T21:14:23.113Z,25.83
2023-06-19T21:19:54.937Z,25.72
2023-06-19T21:25:31.095Z,25.59
2023-06-19T21:31:02.651Z,25.55
2023-06-19T21:36:34.361Z,25.53
2023-06-19T21:42:07.985Z,25.51
2023-06-19T21:47:37.990Z,25.5
2023-06-19T21:53:09.539Z,25.48
2023-06-19T21:58:41.396Z,25.46
2023-06-19T22:04:12.968Z,25.43
2023-06-19T22:09:44.634Z,25.39
2023-06-19T22:15:16.426Z,25.26
2023-06-19T22:20:48.112Z,25.18
2023-06-19T22:26:26.360Z,25.13
2023-06-19T22:31:58.182Z,25.12
2023-06-19T22:37:29.836Z,25.11
2023-06-19T22:43:01.843Z,25.08
2023-06-19T22:48:33.275Z,25.03
2023-06-19T22:54:04.831Z,25.0
2023-06-19T22:59:36.723Z,24.86
2023-06-19T23:05:08.423Z,24.83
2023-06-19T23:10:40.170Z,24.77
2023-06-19T23:16:11.857Z,24.72
2023-06-19T23:21:43.566Z,24.68
2023-06-19T23:27:19.542Z,24.61
2023-06-19T23:32:51.649Z,24.6
2023-06-19T23:38:23.130Z,24.47
2023-06-19T23:43:54.827Z,24.44
2023-06-19T23:49:26.419Z,24.54
2023-06-19T23:54:58.131Z,24.59
